Weather History for KFFL - February, 2014

Change the Weather History Date:

Saturday, February 22, 2014

  Actual Average (KOTM) Record (KOTM)
Temperature  
Mean Temperature 26 °F 30 °F  
Max Temperature 32 °F 39 °F 66 °F (1930)
Min Temperature 19 °F 20 °F -4 °F (1929)
Degree Days  
Heating Degree Days 40 36  
Month to date heating degree days 857  
Since 1 July heating degree days 4679  
Cooling Degree Days 0 0  
Month to date cooling degree days 0  
Year to date cooling degree days 0  
Moisture  
Dew Point 18 °F    
Average Humidity 69    
Maximum Humidity 93    
Minimum Humidity 44    
Precipitation  
Precipitation 0.00 in 0.06 in 1.60 in (1922)
Month to date precipitation 0.90  
Year to date precipitation 1.80  
Sea Level Pressure  
Sea Level Pressure 30.02 in    
Wind  
Wind Speed 6 mph (North)    
Max Wind Speed 14 mph    
Max Gust Speed 14 mph    
Visibility 10 miles    
Events      
T = Trace of Precipitation, MM = Missing Value Source: NWS Daily Summary

Daily Weather History Graph

Daily Weather History Graph

Search for Another Location

Airport or City:

Trip Planner

Search our weather history database for the weather conditions in past years. The results will help you decide how hot, cold, wet, or windy it might be!

Date:

Astronomy

Feb. 22, 2014 Rise Set
Actual Time 6:52 AM CST 5:50 PM CST
Civil Twilight 6:24 AM CST 6:18 PM CST
Nautical Twilight 5:52 AM CST 6:50 PM CST
Astronomical Twilight 5:20 AM CST 7:22 PM CST
Moon 12:49 AM CST (2/22) 11:00 AM CST (2/22)
Length of Visible Light 11h 53m
Length of Day
10h 58m
Waning Gibbous, 50% of the Moon is Illuminated
Feb 22
Waning Gibbous
Mar 1
New
Mar 8
First Quarter
Mar 16
Full
Mar 23
Last Quarter

Hourly Weather History & Observations

Time (CST) Temp. Windchill Dew Point Humidity Pressure Visibility Wind Dir Wind Speed Gust Speed Precip Events Conditions
12:10 AM 30.2 °F 26.7 °F 24.8 °F 80% 29.89 in 10.0 mi SW 3.5 mph - N/A   Clear
12:35 AM 28.4 °F 24.6 °F 24.8 °F 86% 29.90 in 10.0 mi WSW 3.5 mph - N/A   Clear
12:55 AM 28.4 °F 23.3 °F 24.8 °F 86% 29.90 in 10.0 mi WSW 4.6 mph - N/A   Clear
1:15 AM 28.4 °F 23.3 °F 24.8 °F 86% 29.90 in 10.0 mi WSW 4.6 mph - N/A   Clear
1:35 AM 28.4 °F 22.2 °F 24.8 °F 86% 29.91 in 10.0 mi WSW 5.8 mph - N/A   Clear
1:55 AM 28.4 °F 22.2 °F 24.8 °F 86% 29.91 in 10.0 mi West 5.8 mph - N/A   Clear
2:15 AM 28.4 °F 23.3 °F 24.8 °F 86% 29.92 in 10.0 mi SW 4.6 mph - N/A   Partly Cloudy
2:35 AM 28.4 °F 23.3 °F 24.8 °F 86% 29.91 in 10.0 mi SSW 4.6 mph - N/A   Partly Cloudy
2:55 AM 26.6 °F - 23.0 °F 86% 29.91 in 10.0 mi Calm Calm - N/A   Clear
3:15 AM 26.6 °F 21.2 °F 24.8 °F 93% 29.92 in 10.0 mi WSW 4.6 mph - N/A   Clear
3:35 AM 26.6 °F 21.2 °F 23.0 °F 86% 29.92 in 10.0 mi WNW 4.6 mph - N/A   Clear
3:55 AM 28.4 °F 24.6 °F 24.8 °F 86% 29.93 in 10.0 mi WSW 3.5 mph - N/A   Partly Cloudy
4:15 AM 26.6 °F - 23.0 °F 86% 29.92 in 10.0 mi Calm Calm - N/A   Mostly Cloudy
4:35 AM 26.6 °F - 24.8 °F 93% 29.93 in 10.0 mi Calm Calm - N/A   Overcast
4:50 AM 26.6 °F 20.0 °F 23.0 °F 86% 29.94 in 10.0 mi South 5.8 mph - N/A   Overcast
5:15 AM 28.4 °F - 24.8 °F 86% 29.96 in 10.0 mi Calm Calm - N/A   Overcast
5:35 AM 28.4 °F - 24.8 °F 86% 29.97 in 10.0 mi Calm Calm - N/A   Overcast
5:55 AM 28.4 °F 21.2 °F 24.8 °F 86% 29.97 in 10.0 mi North 6.9 mph - N/A   Mostly Cloudy
6:15 AM 28.4 °F 21.2 °F 23.0 °F 80% 29.97 in 10.0 mi North 6.9 mph - N/A   Scattered Clouds
6:35 AM 26.6 °F 20.0 °F 23.0 °F 86% 29.98 in 10.0 mi North 5.8 mph - N/A   Clear
6:55 AM 24.8 °F 19.1 °F 21.2 °F 86% 29.98 in 10.0 mi NNE 4.6 mph - N/A   Mostly Cloudy
7:15 AM 24.8 °F 16.9 °F 19.4 °F 80% 29.99 in 10.0 mi NNE 6.9 mph - N/A   Scattered Clouds
7:35 AM 26.6 °F 21.2 °F 19.4 °F 74% 29.99 in 10.0 mi NNE 4.6 mph - N/A   Partly Cloudy
7:55 AM 26.6 °F 20.0 °F 17.6 °F 69% 30.00 in 10.0 mi NNE 5.8 mph - N/A   Scattered Clouds
8:15 AM 26.6 °F 18.2 °F 17.6 °F 69% 30.02 in 10.0 mi NNE 8.1 mph - N/A   Mostly Cloudy
8:35 AM 26.6 °F 19.1 °F 15.8 °F 64% 30.01 in 10.0 mi NE 6.9 mph - N/A   Scattered Clouds
8:55 AM 26.6 °F 20.0 °F 15.8 °F 64% 30.02 in 10.0 mi NE 5.8 mph - N/A   Clear
9:15 AM 26.6 °F 19.1 °F 17.6 °F 69% 30.03 in 10.0 mi North 6.9 mph - N/A   Partly Cloudy
9:35 AM 26.6 °F - 17.6 °F 69% 30.04 in 10.0 mi Calm Calm - N/A   Clear
9:55 AM 28.4 °F 23.3 °F 17.6 °F 64% 30.04 in 10.0 mi NNE 4.6 mph - N/A   Clear
10:15 AM 28.4 °F 20.4 °F 17.6 °F 64% 30.04 in 10.0 mi North 8.1 mph - N/A   Scattered Clouds
10:35 AM 28.4 °F 20.4 °F 15.8 °F 59% 30.04 in 10.0 mi North 8.1 mph - N/A   Mostly Cloudy
10:55 AM 28.4 °F 19.1 °F 15.8 °F 59% 30.04 in 10.0 mi North 10.4 mph - N/A   Partly Cloudy
11:15 AM 30.2 °F 20.8 °F 14.0 °F 51% 30.04 in 10.0 mi North 11.5 mph - N/A   Partly Cloudy
11:35 AM 30.2 °F 22.6 °F 17.6 °F 60% 30.05 in 10.0 mi North 8.1 mph - N/A   Clear
11:55 AM 30.2 °F 22.6 °F 15.8 °F 55% 30.05 in 10.0 mi NNE 8.1 mph - N/A   Clear
12:15 PM 30.2 °F 22.6 °F 14.0 °F 51% 30.04 in 10.0 mi NNE 8.1 mph - N/A   Clear
12:35 PM 30.2 °F 23.4 °F 14.0 °F 51% 30.03 in - NNE 6.9 mph - N/A   Partly Cloudy
12:55 PM 32.0 °F 24.8 °F 12.2 °F 44% 30.03 in 10.0 mi NNE 8.1 mph - N/A   Clear
1:15 PM 32.0 °F 24.8 °F 14.0 °F 48% 30.02 in 10.0 mi North 8.1 mph - N/A   Scattered Clouds
1:35 PM 32.0 °F 25.6 °F 17.6 °F 55% 30.02 in 10.0 mi North 6.9 mph - N/A   Mostly Cloudy
1:55 PM 32.0 °F 24.8 °F 17.6 °F 55% 30.02 in 10.0 mi North 8.1 mph - N/A   Scattered Clouds
2:15 PM 32.0 °F 22.5 °F 17.6 °F 55% 30.02 in 10.0 mi NNE 12.7 mph - N/A   Clear
2:35 PM 32.0 °F 23.6 °F 17.6 °F 55% 30.01 in 10.0 mi North 10.4 mph - N/A   Partly Cloudy
2:55 PM 32.0 °F 23.6 °F 17.6 °F 55% 30.02 in 10.0 mi North 10.4 mph - N/A   Partly Cloudy
3:15 PM 32.0 °F 23.0 °F 17.6 °F 55% 30.02 in 10.0 mi North 11.5 mph - N/A   Mostly Cloudy
3:35 PM 30.2 °F 21.9 °F 17.6 °F 60% 30.02 in 10.0 mi NNE 9.2 mph - N/A   Overcast
3:55 PM 30.2 °F 22.6 °F 17.6 °F 60% 30.03 in 10.0 mi NNE 8.1 mph - N/A   Overcast
4:15 PM 30.2 °F 25.4 °F 17.6 °F 60% 30.04 in 10.0 mi NE 4.6 mph - N/A   Overcast
4:35 PM 30.2 °F - 17.6 °F 60% 30.05 in 10.0 mi Calm Calm - N/A   Scattered Clouds
4:55 PM 30.2 °F 25.4 °F 17.6 °F 60% 30.05 in 10.0 mi ENE 4.6 mph - N/A   Partly Cloudy
5:15 PM 30.2 °F 25.4 °F 17.6 °F 60% 30.06 in 10.0 mi NNE 4.6 mph - N/A   Clear
5:35 PM 30.2 °F 24.3 °F 19.4 °F 64% 30.06 in 10.0 mi NNE 5.8 mph - N/A   Clear
5:50 PM 30.2 °F 25.4 °F 19.4 °F 64% 30.07 in 10.0 mi NNE 4.6 mph - N/A   Clear
6:15 PM 28.4 °F 18.5 °F 15.8 °F 59% 30.08 in 10.0 mi NNW 11.5 mph - N/A   Partly Cloudy
6:35 PM 28.4 °F 19.1 °F 14.0 °F 55% 30.08 in 10.0 mi North 10.4 mph - N/A   Scattered Clouds
6:55 PM 28.4 °F 20.4 °F 14.0 °F 55% 30.09 in 10.0 mi North 8.1 mph - N/A   Mostly Cloudy
7:15 PM 28.4 °F 20.4 °F 14.0 °F 55% 30.10 in 10.0 mi North 8.1 mph - N/A   Mostly Cloudy
7:35 PM 26.6 °F 19.1 °F 15.8 °F 64% 30.10 in 10.0 mi North 6.9 mph - N/A   Mostly Cloudy
7:55 PM 26.6 °F 19.1 °F 15.8 °F 64% 30.10 in 10.0 mi North 6.9 mph - N/A   Scattered Clouds
8:15 PM 26.6 °F 19.1 °F 17.6 °F 69% 30.12 in 10.0 mi North 6.9 mph - N/A   Scattered Clouds
8:35 PM 26.6 °F 19.1 °F 17.6 °F 69% 30.12 in 10.0 mi North 6.9 mph - N/A   Partly Cloudy
8:55 PM 24.8 °F 15.3 °F 17.6 °F 74% 30.13 in 10.0 mi NNW 9.2 mph - N/A   Clear
9:15 PM 24.8 °F 14.6 °F 15.8 °F 69% 30.13 in 10.0 mi North 10.4 mph - N/A   Clear
9:35 PM 24.8 °F 14.0 °F 15.8 °F 69% 30.13 in 10.0 mi North 11.5 mph - N/A   Clear
9:55 PM 23.0 °F 11.1 °F 14.0 °F 68% 30.13 in 10.0 mi North 12.7 mph - N/A   Clear
10:15 PM 21.2 °F 10.1 °F 12.2 °F 68% 30.13 in 10.0 mi North 10.4 mph - N/A   Clear
10:30 PM 21.2 °F 11.7 °F 12.2 °F 68% 30.12 in 10.0 mi North 8.1 mph - N/A   Clear
10:55 PM 21.2 °F 9.5 °F 10.4 °F 63% 30.14 in 10.0 mi North 11.5 mph - N/A   Clear
11:15 PM 21.2 °F 8.3 °F 10.4 °F 63% 30.15 in 10.0 mi North 13.8 mph - N/A   Clear
11:35 PM 19.4 °F 6.6 °F 10.4 °F 68% 30.16 in 10.0 mi North 12.7 mph - N/A   Scattered Clouds
11:55 PM 19.4 °F 9.5 °F 10.4 °F 68% 30.16 in 10.0 mi North 8.1 mph 13.8 mph N/A   Mostly Cloudy